Time;durP1;ratioP1;P1;durP2;ratioP2;P2;SDS_P1;SDS_P2;PMS_P1;PMS_P2;Temp;Humidity;BMP_temperature;BMP_pressure;BME280_temperature;BME280_humidity;BME280_pressure;Samples;Min_cycle;Max_cycle;Signal;HPM_P1;HPM_P2
2021/07/21 00:01:36;;;;;;;5.35;3.83;;;;;;;;;;5019294;28;20080;-74
2021/07/21 00:04:20;;;;;;;5.15;3.78;;;;;;;;;;5016050;28;20700;-74
2021/07/21 00:07:05;;;;;;;5.28;3.83;;;;;;;;;;5015701;28;20076;-74
2021/07/21 00:09:51;;;;;;;4.35;3.40;;;;;;;;;;5013366;28;20087;-74
2021/07/21 00:15:43;;;;;;;5.32;3.90;;;;;;;;;;5019740;28;20052;-74
2021/07/21 00:21:42;;;;;;;4.45;3.90;;;;;;;;;;5015345;28;20044;-75
2021/07/21 00:24:27;;;;;;;4.20;3.80;;;;;;;;;;5016261;28;20068;-75
2021/07/21 00:27:11;;;;;;;4.32;3.90;;;;;;;;;;5019853;28;20044;-74
2021/07/21 00:29:56;;;;;;;4.85;3.85;;;;;;;;;;5013414;28;20201;-74
2021/07/21 00:32:41;;;;;;;4.32;3.60;;;;;;;;;;5015331;28;20040;-75
2021/07/21 00:35:25;;;;;;;4.05;3.63;;;;;;;;;;5016954;28;20124;-74
2021/07/21 00:38:10;;;;;;;4.47;3.25;;;;;;;;;;5012679;28;20036;-75
2021/07/21 00:40:55;;;;;;;5.88;4.13;;;;;;;;;;5017398;28;20183;-74
2021/07/21 00:43:39;;;;;;;4.07;3.67;;;;;;;;;;5011897;28;20037;-74
2021/07/21 00:46:24;;;;;;;5.65;3.90;;;;;;;;;;5017929;28;20088;-75
2021/07/21 00:49:09;;;;;;;4.30;3.90;;;;;;;;;;5020360;28;20041;-74
2021/07/21 00:51:53;;;;;;;4.10;3.65;;;;;;;;;;5017155;28;20037;-75
2021/07/21 00:54:39;;;;;;;5.63;3.72;;;;;;;;;;5016138;28;20175;-74
2021/07/21 00:57:24;;;;;;;5.88;3.80;;;;;;;;;;5003011;28;20040;-75
2021/07/21 01:00:13;;;;;;;4.57;4.00;;;;;;;;;;5019222;28;20278;-75
2021/07/21 01:02:57;;;;;;;4.97;3.85;;;;;;;;;;5014689;28;20064;-76
2021/07/21 01:05:42;;;;;;;4.10;3.70;;;;;;;;;;5000463;28;20064;-75
2021/07/21 01:08:27;;;;;;;4.28;3.53;;;;;;;;;;5015282;28;20418;-74
2021/07/21 01:11:16;;;;;;;4.78;3.70;;;;;;;;;;5002301;28;20064;-74
2021/07/21 01:14:01;;;;;;;6.38;4.10;;;;;;;;;;5016118;28;20048;-75
2021/07/21 01:16:48;;;;;;;4.70;3.53;;;;;;;;;;5012621;28;20036;-75
2021/07/21 01:19:59;;;;;;;4.25;3.45;;;;;;;;;;5000974;28;20090;-76
2021/07/21 01:22:44;;;;;;;4.45;3.65;;;;;;;;;;5015891;28;20765;-75
2021/07/21 01:25:29;;;;;;;5.82;3.90;;;;;;;;;;5016978;28;20067;-75
2021/07/21 01:28:13;;;;;;;5.72;3.88;;;;;;;;;;5019647;28;20037;-75
2021/07/21 01:30:58;;;;;;;4.38;3.97;;;;;;;;;;5018448;28;20478;-75
2021/07/21 01:33:43;;;;;;;5.07;3.78;;;;;;;;;;5000172;28;20560;-74
2021/07/21 01:36:33;;;;;;;4.38;3.88;;;;;;;;;;5014357;28;20043;-74
2021/07/21 01:39:18;;;;;;;4.82;3.70;;;;;;;;;;5001974;28;20045;-74
2021/07/21 01:42:05;;;;;;;5.03;4.10;;;;;;;;;;5015707;28;20036;-75
2021/07/21 01:44:50;;;;;;;5.47;4.07;;;;;;;;;;5016727;28;20044;-75
2021/07/21 01:47:34;;;;;;;4.00;3.60;;;;;;;;;;5016917;28;20028;-75
2021/07/21 01:50:20;;;;;;;5.57;3.97;;;;;;;;;;5013590;28;20513;-75
2021/07/21 01:53:05;;;;;;;4.60;4.05;;;;;;;;;;5009980;28;20095;-75
2021/07/21 01:55:49;;;;;;;4.95;3.65;;;;;;;;;;5014017;28;20043;-75
2021/07/21 01:58:34;;;;;;;4.28;3.88;;;;;;;;;;5013843;28;20110;-74
2021/07/21 02:01:19;;;;;;;5.80;4.20;;;;;;;;;;5015679;28;20449;-75
2021/07/21 02:04:04;;;;;;;5.00;4.25;;;;;;;;;;5012174;28;20094;-74
2021/07/21 02:06:49;;;;;;;4.97;3.80;;;;;;;;;;5012767;28;20114;-75
2021/07/21 02:09:33;;;;;;;5.75;4.53;;;;;;;;;;5015167;28;20040;-75
2021/07/21 02:12:18;;;;;;;4.68;3.70;;;;;;;;;;5015536;28;20125;-74
2021/07/21 02:15:02;;;;;;;5.47;3.92;;;;;;;;;;5003616;28;20505;-75
2021/07/21 02:17:47;;;;;;;5.60;4.32;;;;;;;;;;5001663;28;20044;-74
2021/07/21 02:20:32;;;;;;;4.75;3.65;;;;;;;;;;5016525;28;20051;-74
2021/07/21 02:23:18;;;;;;;4.95;4.03;;;;;;;;;;5019970;28;20036;-75
2021/07/21 02:26:02;;;;;;;4.93;3.90;;;;;;;;;;5017060;28;20033;-75
2021/07/21 02:28:47;;;;;;;5.28;4.38;;;;;;;;;;5013749;28;20501;-74
2021/07/21 02:31:33;;;;;;;5.95;4.38;;;;;;;;;;5017133;28;20628;-75
2021/07/21 02:34:18;;;;;;;5.35;4.03;;;;;;;;;;5020152;28;20053;-74
2021/07/21 02:37:02;;;;;;;5.55;4.32;;;;;;;;;;5022539;28;20088;-74
2021/07/21 02:39:49;;;;;;;4.80;4.10;;;;;;;;;;5021686;28;20047;-74
2021/07/21 02:42:34;;;;;;;4.70;3.80;;;;;;;;;;5024307;28;20509;-74
2021/07/21 02:45:19;;;;;;;7.82;4.43;;;;;;;;;;5024088;28;20044;-75
2021/07/21 02:48:07;;;;;;;4.93;3.85;;;;;;;;;;5020634;28;20456;-74
2021/07/21 02:50:54;;;;;;;6.10;4.40;;;;;;;;;;5020938;28;20083;-75
2021/07/21 02:53:39;;;;;;;4.68;4.20;;;;;;;;;;5018468;28;20056;-74
2021/07/21 02:56:25;;;;;;;4.90;4.10;;;;;;;;;;5021192;28;20032;-75
2021/07/21 02:59:11;;;;;;;5.18;4.22;;;;;;;;;;5023136;28;20415;-74
2021/07/21 03:01:56;;;;;;;6.95;4.70;;;;;;;;;;5020204;28;20406;-75
2021/07/21 03:04:40;;;;;;;5.65;4.68;;;;;;;;;;5018906;28;20044;-74
2021/07/21 03:07:25;;;;;;;5.43;4.50;;;;;;;;;;5021078;28;20039;-74
2021/07/21 03:10:11;;;;;;;5.00;4.22;;;;;;;;;;5004816;28;20435;-74
2021/07/21 03:12:58;;;;;;;4.65;4.10;;;;;;;;;;5022023;28;20048;-74
2021/07/21 03:15:43;;;;;;;4.47;4.05;;;;;;;;;;5019979;28;21949;-74
2021/07/21 03:18:28;;;;;;;5.40;4.28;;;;;;;;;;5020642;28;20087;-75
2021/07/21 03:21:13;;;;;;;4.93;4.20;;;;;;;;;;5005530;28;20102;-74
2021/07/21 03:23:57;;;;;;;4.68;4.20;;;;;;;;;;5017243;28;20044;-75
2021/07/21 03:26:42;;;;;;;6.70;4.28;;;;;;;;;;5017537;28;20099;-74
2021/07/21 03:29:28;;;;;;;5.85;4.70;;;;;;;;;;5006634;28;20069;-74
2021/07/21 03:32:12;;;;;;;5.50;4.60;;;;;;;;;;5009535;28;20497;-75
2021/07/21 03:34:57;;;;;;;6.10;4.10;;;;;;;;;;5017545;28;20530;-75
2021/07/21 03:37:41;;;;;;;5.85;4.22;;;;;;;;;;5017185;28;20059;-74
2021/07/21 03:40:27;;;;;;;5.32;4.20;;;;;;;;;;5021058;28;20468;-75
2021/07/21 03:43:11;;;;;;;4.50;4.03;;;;;;;;;;5021040;28;20040;-75
2021/07/21 03:46:00;;;;;;;4.47;3.88;;;;;;;;;;5018522;28;20053;-75
2021/07/21 03:48:45;;;;;;;5.15;4.65;;;;;;;;;;5022061;28;20048;-75
2021/07/21 03:51:37;;;;;;;4.53;3.92;;;;;;;;;;5000642;28;20091;-74
2021/07/21 03:54:21;;;;;;;;;;;;;;;;;;5021857;28;20107;-75
2021/07/21 03:57:06;;;;;;;6.57;4.10;;;;;;;;;;5020548;28;19961;-75
2021/07/21 03:59:51;;;;;;;5.70;4.10;;;;;;;;;;5022999;28;20039;-75
2021/07/21 04:02:35;;;;;;;5.40;4.20;;;;;;;;;;5020396;28;20749;-75
2021/07/21 04:05:20;;;;;;;5.65;4.50;;;;;;;;;;5018582;28;20055;-75
2021/07/21 04:08:04;;;;;;;6.53;4.43;;;;;;;;;;5021203;28;20048;-74
2021/07/21 04:10:52;;;;;;;4.85;3.88;;;;;;;;;;5018363;28;20044;-75
2021/07/21 04:13:37;;;;;;;5.57;4.05;;;;;;;;;;5020447;28;20473;-74
2021/07/21 04:16:22;;;;;;;6.85;4.20;;;;;;;;;;5026529;28;20163;-75
2021/07/21 04:19:06;;;;;;;6.50;4.22;;;;;;;;;;5024379;28;20045;-74
2021/07/21 04:21:52;;;;;;;4.80;4.03;;;;;;;;;;5024348;28;20045;-74
2021/07/21 04:24:36;;;;;;;5.75;4.25;;;;;;;;;;5024050;28;20566;-74
2021/07/21 04:27:21;;;;;;;4.30;3.90;;;;;;;;;;5025524;28;20505;-74
2021/07/21 04:30:06;;;;;;;5.00;4.00;;;;;;;;;;5010266;28;20161;-74
2021/07/21 04:32:51;;;;;;;4.88;4.00;;;;;;;;;;5024215;28;20056;-74
2021/07/21 04:35:36;;;;;;;4.75;3.80;;;;;;;;;;5025091;28;20121;-75
2021/07/21 04:38:20;;;;;;;4.57;3.88;;;;;;;;;;5022231;28;20119;-75
2021/07/21 04:41:05;;;;;;;5.15;3.80;;;;;;;;;;5021663;28;20229;-75
2021/07/21 04:43:50;;;;;;;4.40;3.45;;;;;;;;;;5021890;28;20437;-75
2021/07/21 04:46:35;;;;;;;5.18;4.25;;;;;;;;;;5022851;28;20121;-75
2021/07/21 04:49:20;;;;;;;5.47;3.97;;;;;;;;;;5021352;28;20485;-75
2021/07/21 04:52:05;;;;;;;5.07;3.85;;;;;;;;;;5020449;28;20052;-74
2021/07/21 04:54:50;;;;;;;4.82;4.00;;;;;;;;;;5017246;28;20048;-76
2021/07/21 04:57:35;;;;;;;4.70;3.90;;;;;;;;;;5020655;28;20032;-74
2021/07/21 05:00:19;;;;;;;4.55;3.83;;;;;;;;;;5007069;28;20044;-74
2021/07/21 05:03:06;;;;;;;5.18;3.97;;;;;;;;;;5019772;28;20545;-74
2021/07/21 05:05:51;;;;;;;4.75;4.00;;;;;;;;;;5019605;28;20584;-74
2021/07/21 05:08:35;;;;;;;4.97;3.95;;;;;;;;;;5019937;28;20036;-74
2021/07/21 05:11:20;;;;;;;4.40;3.42;;;;;;;;;;5019844;28;20036;-75
2021/07/21 05:14:05;;;;;;;5.43;4.45;;;;;;;;;;5013097;28;20084;-74
2021/07/21 05:16:50;;;;;;;6.28;4.50;;;;;;;;;;5005812;28;20125;-75
2021/07/21 05:19:34;;;;;;;5.38;3.85;;;;;;;;;;5004958;28;20479;-74
2021/07/21 05:22:19;;;;;;;4.78;3.92;;;;;;;;;;5020352;28;20180;-75
2021/07/21 05:25:04;;;;;;;5.00;4.28;;;;;;;;;;5018618;28;20158;-75
2021/07/21 05:27:49;;;;;;;4.82;3.97;;;;;;;;;;5020434;28;20558;-75
2021/07/21 05:30:33;;;;;;;6.25;4.22;;;;;;;;;;5019578;28;20068;-74
2021/07/21 05:33:18;;;;;;;5.68;4.30;;;;;;;;;;5020756;28;20115;-74
2021/07/21 05:36:03;;;;;;;5.30;4.07;;;;;;;;;;5017944;28;20088;-74
2021/07/21 05:38:48;;;;;;;5.32;4.25;;;;;;;;;;5020033;28;20481;-74
2021/07/21 05:41:32;;;;;;;6.65;4.20;;;;;;;;;;5004613;28;20056;-74
2021/07/21 05:44:17;;;;;;;5.38;4.10;;;;;;;;;;5020688;28;20087;-74
2021/07/21 05:47:02;;;;;;;4.72;3.75;;;;;;;;;;5018317;28;20040;-74
2021/07/21 05:49:46;;;;;;;6.03;4.60;;;;;;;;;;5018109;28;20124;-74
2021/07/21 05:52:31;;;;;;;5.35;4.30;;;;;;;;;;5018425;28;20040;-75
2021/07/21 05:55:16;;;;;;;6.57;4.40;;;;;;;;;;5020227;28;20154;-75
2021/07/21 05:58:01;;;;;;;7.32;4.15;;;;;;;;;;5018240;28;20032;-74
2021/07/21 06:00:46;;;;;;;7.53;4.50;;;;;;;;;;5019152;28;20875;-74
2021/07/21 06:03:30;;;;;;;6.00;4.18;;;;;;;;;;5020398;28;20123;-74
2021/07/21 06:06:15;;;;;;;5.32;4.22;;;;;;;;;;5018398;28;20048;-74
2021/07/21 06:08:59;;;;;;;5.18;4.13;;;;;;;;;;5020605;28;20099;-75
2021/07/21 06:11:44;;;;;;;6.22;4.00;;;;;;;;;;5019015;28;20501;-74
2021/07/21 06:14:29;;;;;;;5.50;4.13;;;;;;;;;;5019114;28;20052;-74
2021/07/21 06:17:14;;;;;;;5.40;4.65;;;;;;;;;;5018079;28;20211;-75
2021/07/21 06:19:58;;;;;;;4.72;3.88;;;;;;;;;;5018247;28;20040;-74
2021/07/21 06:22:43;;;;;;;6.78;4.10;;;;;;;;;;5019417;28;20083;-75
2021/07/21 06:25:28;;;;;;;5.70;4.13;;;;;;;;;;5018908;28;20082;-74
2021/07/21 06:28:13;;;;;;;6.90;4.25;;;;;;;;;;5017825;28;20153;-74
2021/07/21 06:30:58;;;;;;;5.38;4.13;;;;;;;;;;5018495;28;20040;-74
2021/07/21 06:33:43;;;;;;;6.07;4.47;;;;;;;;;;5019398;28;20176;-74
2021/07/21 06:36:28;;;;;;;5.47;4.20;;;;;;;;;;5018541;28;20472;-75
2021/07/21 06:39:12;;;;;;;7.15;4.22;;;;;;;;;;5019362;28;20072;-74
2021/07/21 06:41:57;;;;;;;6.50;4.07;;;;;;;;;;5017856;28;20044;-74
2021/07/21 06:44:41;;;;;;;5.78;4.07;;;;;;;;;;5019630;28;20036;-74
2021/07/21 06:47:26;;;;;;;5.78;4.05;;;;;;;;;;5019334;28;20616;-74
2021/07/21 06:50:11;;;;;;;5.18;4.25;;;;;;;;;;5019983;28;20050;-74
2021/07/21 06:52:56;;;;;;;5.88;4.03;;;;;;;;;;5017969;28;20035;-76
2021/07/21 06:55:40;;;;;;;4.53;3.80;;;;;;;;;;5019111;28;20297;-74
2021/07/21 06:58:25;;;;;;;5.97;4.35;;;;;;;;;;5018665;28;20167;-74
2021/07/21 07:01:09;;;;;;;4.25;3.85;;;;;;;;;;5004475;28;20041;-74
2021/07/21 07:03:54;;;;;;;5.70;4.05;;;;;;;;;;5019284;28;20076;-74
2021/07/21 07:06:39;;;;;;;5.20;4.00;;;;;;;;;;5019036;28;20144;-74
2021/07/21 07:09:23;;;;;;;5.55;4.03;;;;;;;;;;5018170;28;20052;-74
2021/07/21 07:12:08;;;;;;;5.78;4.13;;;;;;;;;;5018975;28;20044;-74
2021/07/21 07:14:53;;;;;;;5.03;3.85;;;;;;;;;;5018335;28;20107;-74
2021/07/21 07:17:37;;;;;;;4.68;3.88;;;;;;;;;;5013727;28;20096;-74
2021/07/21 07:20:22;;;;;;;5.30;4.13;;;;;;;;;;5000297;28;20094;-74
2021/07/21 07:23:06;;;;;;;5.63;4.00;;;;;;;;;;5013746;28;20036;-74
2021/07/21 07:25:51;;;;;;;5.45;3.90;;;;;;;;;;5012595;28;20417;-75
2021/07/21 07:28:36;;;;;;;6.13;3.95;;;;;;;;;;5018541;28;20191;-74
2021/07/21 07:31:21;;;;;;;4.43;3.60;;;;;;;;;;5018896;28;20535;-74
2021/07/21 07:34:05;;;;;;;4.60;3.67;;;;;;;;;;5020681;28;20107;-75
2021/07/21 07:36:50;;;;;;;4.20;3.78;;;;;;;;;;5022880;28;20031;-74
2021/07/21 07:39:34;;;;;;;4.00;3.55;;;;;;;;;;5021629;28;20128;-74
2021/07/21 07:42:19;;;;;;;6.97;3.60;;;;;;;;;;5020818;28;20044;-74
2021/07/21 07:45:04;;;;;;;4.68;3.67;;;;;;;;;;5022420;28;20616;-74
2021/07/21 07:47:49;;;;;;;4.22;3.58;;;;;;;;;;5021560;28;20044;-74
2021/07/21 07:50:34;;;;;;;3.80;3.28;;;;;;;;;;5019944;28;20270;-73
2021/07/21 07:53:18;;;;;;;4.80;3.33;;;;;;;;;;5019673;28;20156;-74
2021/07/21 07:56:03;;;;;;;4.50;3.45;;;;;;;;;;5019888;28;20450;-74
2021/07/21 07:58:48;;;;;;;3.60;3.13;;;;;;;;;;5018890;28;20095;-74
2021/07/21 08:01:32;;;;;;;3.90;3.13;;;;;;;;;;5006316;28;20044;-74
2021/07/21 08:04:17;;;;;;;3.75;2.97;;;;;;;;;;5004434;28;20045;-73
2021/07/21 08:07:01;;;;;;;4.05;3.45;;;;;;;;;;5000806;28;20159;-74
2021/07/21 08:09:46;;;;;;;3.53;3.22;;;;;;;;;;5021441;28;20044;-74
2021/07/21 08:12:30;;;;;;;3.80;3.20;;;;;;;;;;5024482;28;20104;-74
2021/07/21 08:15:15;;;;;;;5.13;3.70;;;;;;;;;;5025804;28;20517;-73
2021/07/21 08:18:00;;;;;;;4.93;3.65;;;;;;;;;;5024380;28;20126;-74
2021/07/21 08:20:44;;;;;;;5.22;3.72;;;;;;;;;;5024968;28;20099;-74
2021/07/21 08:23:29;;;;;;;5.20;3.67;;;;;;;;;;5022359;28;20044;-75
2021/07/21 08:26:14;;;;;;;5.68;3.42;;;;;;;;;;5006533;28;20735;-74
2021/07/21 08:28:58;;;;;;;5.22;3.67;;;;;;;;;;5016260;28;20176;-74
2021/07/21 08:31:42;;;;;;;5.03;3.33;;;;;;;;;;5025611;28;20458;-74
2021/07/21 08:34:27;;;;;;;5.05;3.70;;;;;;;;;;5024524;28;20056;-74
2021/07/21 08:37:11;;;;;;;4.38;3.20;;;;;;;;;;5026076;28;20540;-73
2021/07/21 08:39:58;;;;;;;5.90;3.35;;;;;;;;;;5024700;28;20921;-74
2021/07/21 08:42:43;;;;;;;4.28;3.45;;;;;;;;;;5020682;28;20044;-74
2021/07/21 08:45:28;;;;;;;4.55;3.40;;;;;;;;;;5020156;28;20082;-74
2021/07/21 08:48:13;;;;;;;4.95;3.15;;;;;;;;;;5020837;28;20044;-74
2021/07/21 08:50:58;;;;;;;3.95;3.40;;;;;;;;;;5020286;28;20137;-73
2021/07/21 08:53:42;;;;;;;5.78;3.78;;;;;;;;;;5004686;28;20072;-73
2021/07/21 08:56:27;;;;;;;5.53;3.42;;;;;;;;;;5003310;28;20035;-74
2021/07/21 08:59:12;;;;;;;4.15;3.30;;;;;;;;;;5019842;28;20092;-74
2021/07/21 09:01:57;;;;;;;4.53;3.42;;;;;;;;;;5019854;28;20040;-75
2021/07/21 09:04:41;;;;;;;4.22;3.10;;;;;;;;;;5020199;28;20040;-74
2021/07/21 09:07:26;;;;;;;4.28;3.00;;;;;;;;;;5020966;28;20037;-74
2021/07/21 09:10:12;;;;;;;5.50;3.45;;;;;;;;;;5020844;28;20083;-75
2021/07/21 09:12:56;;;;;;;5.93;3.42;;;;;;;;;;5020695;28;20095;-74
2021/07/21 09:15:44;;;;;;;4.22;3.20;;;;;;;;;;5019772;28;20070;-74
2021/07/21 09:18:31;;;;;;;4.43;3.22;;;;;;;;;;5021152;28;20140;-74
2021/07/21 09:21:17;;;;;;;4.40;3.05;;;;;;;;;;5020526;28;20108;-74
2021/07/21 09:24:01;;;;;;;5.15;3.08;;;;;;;;;;5015909;28;20402;-74
2021/07/21 09:26:46;;;;;;;4.50;3.40;;;;;;;;;;5012737;28;20150;-75
2021/07/21 09:29:31;;;;;;;5.60;2.85;;;;;;;;;;5002229;28;21173;-74
2021/07/21 09:32:16;;;;;;;4.68;3.30;;;;;;;;;;5018535;28;20129;-75
2021/07/21 09:35:00;;;;;;;6.15;3.50;;;;;;;;;;5019746;28;20056;-74
2021/07/21 09:37:45;;;;;;;3.88;3.35;;;;;;;;;;5018078;28;20041;-74
2021/07/21 09:40:29;;;;;;;3.75;2.92;;;;;;;;;;5020023;28;20052;-75
2021/07/21 09:43:15;;;;;;;6.00;3.50;;;;;;;;;;5013528;28;20039;-75
2021/07/21 09:46:07;;;;;;;4.97;3.22;;;;;;;;;;5019361;28;20068;-75
2021/07/21 09:48:51;;;;;;;3.30;3.00;;;;;;;;;;5017537;28;20113;-74
2021/07/21 09:51:38;;;;;;;4.03;2.90;;;;;;;;;;5023692;28;20399;-74
2021/07/21 09:54:23;;;;;;;3.70;3.20;;;;;;;;;;5020061;28;20052;-75
2021/07/21 09:57:12;;;;;;;3.70;3.05;;;;;;;;;;5015582;28;20036;-80
2021/07/21 09:59:58;;;;;;;6.13;3.03;;;;;;;;;;5017125;28;20048;-74
2021/07/21 10:02:43;;;;;;;4.43;3.30;;;;;;;;;;5022838;28;20125;-75
2021/07/21 10:05:27;;;;;;;4.95;3.08;;;;;;;;;;5023573;28;20086;-75
2021/07/21 10:08:24;;;;;;;5.18;2.92;;;;;;;;;;5023131;28;20044;-74
2021/07/21 10:11:28;;;;;;;4.75;3.10;;;;;;;;;;5022402;28;20092;-75
2021/07/21 10:14:13;;;;;;;4.22;3.13;;;;;;;;;;5022828;28;20052;-75
2021/07/21 10:16:59;;;;;;;3.83;3.15;;;;;;;;;;5023459;28;20090;-75
2021/07/21 10:19:43;;;;;;;4.15;3.25;;;;;;;;;;5022841;28;20037;-75
2021/07/21 10:22:28;;;;;;;4.65;3.50;;;;;;;;;;5021625;28;20137;-75
2021/07/21 10:25:13;;;;;;;5.50;3.33;;;;;;;;;;5015739;28;20118;-74
2021/07/21 10:27:58;;;;;;;4.03;3.03;;;;;;;;;;5022569;28;20501;-74
2021/07/21 10:30:42;;;;;;;4.05;3.10;;;;;;;;;;5020851;28;20087;-75
2021/07/21 10:33:27;;;;;;;4.75;2.80;;;;;;;;;;5022545;28;20120;-75
2021/07/21 10:36:11;;;;;;;4.63;3.28;;;;;;;;;;5019415;28;20040;-74
2021/07/21 10:38:56;;;;;;;3.97;3.30;;;;;;;;;;5014345;28;20091;-75
2021/07/21 10:41:41;;;;;;;4.68;2.97;;;;;;;;;;5019391;28;20502;-75
2021/07/21 10:44:26;;;;;;;4.88;3.38;;;;;;;;;;5030410;28;20028;-74
2021/07/21 10:47:20;;;;;;;4.20;3.00;;;;;;;;;;5034789;28;20039;-74
2021/07/21 10:50:10;;;;;;;5.63;3.30;;;;;;;;;;5022136;28;20040;-74
2021/07/21 10:53:17;;;;;;;5.13;3.30;;;;;;;;;;5015201;28;20099;-75
2021/07/21 10:59:40;;;;;;;5.10;3.38;;;;;;;;;;5028556;28;20120;-75
2021/07/21 11:02:24;;;;;;;3.83;3.10;;;;;;;;;;5030439;28;20040;-74
2021/07/21 11:05:29;;;;;;;4.70;3.25;;;;;;;;;;5031346;28;20566;-75
2021/07/21 11:08:18;;;;;;;4.00;3.17;;;;;;;;;;5019572;28;20036;-74
2021/07/21 11:11:10;;;;;;;5.07;3.30;;;;;;;;;;5012619;28;20095;-75
2021/07/21 11:13:55;;;;;;;5.00;3.40;;;;;;;;;;5023777;28;20049;-74
2021/07/21 11:16:46;;;;;;;4.10;3.20;;;;;;;;;;5026258;28;20044;-75
2021/07/21 11:19:43;;;;;;;5.30;3.50;;;;;;;;;;5019913;28;20065;-75
2021/07/21 11:22:28;;;;;;;5.78;3.20;;;;;;;;;;5021597;28;20059;-75
2021/07/21 11:25:16;;;;;;;4.70;3.22;;;;;;;;;;5020925;28;20132;-74
2021/07/21 11:28:01;;;;;;;5.20;3.30;;;;;;;;;;5022578;28;20056;-74
2021/07/21 11:30:49;;;;;;;5.07;3.22;;;;;;;;;;5015132;28;20448;-74
2021/07/21 11:33:54;;;;;;;5.80;3.40;;;;;;;;;;5016983;28;20095;-75
2021/07/21 11:36:39;;;;;;;5.13;3.00;;;;;;;;;;5015024;28;20114;-73
2021/07/21 11:39:47;;;;;;;5.95;3.53;;;;;;;;;;5019779;28;20091;-73
2021/07/21 11:42:34;;;;;;;3.63;2.85;;;;;;;;;;5017811;28;20083;-74
2021/07/21 11:45:19;;;;;;;5.88;3.05;;;;;;;;;;5017379;28;20179;-74
2021/07/21 11:48:06;;;;;;;5.40;3.10;;;;;;;;;;5019285;28;20517;-73
2021/07/21 11:50:51;;;;;;;5.78;3.53;;;;;;;;;;5022220;28;20497;-73
2021/07/21 11:53:36;;;;;;;5.72;3.28;;;;;;;;;;5026146;28;20469;-73
2021/07/21 11:56:21;;;;;;;4.32;3.17;;;;;;;;;;5022690;28;20159;-73
2021/07/21 11:59:05;;;;;;;7.93;3.28;;;;;;;;;;5022501;28;20810;-75
2021/07/21 12:02:01;;;;;;;6.32;3.30;;;;;;;;;;5022448;28;20172;-72
2021/07/21 12:04:49;;;;;;;6.30;3.03;;;;;;;;;;5023154;28;20700;-73
2021/07/21 12:07:34;;;;;;;4.75;3.42;;;;;;;;;;5027157;28;20482;-73
2021/07/21 12:10:19;;;;;;;6.28;3.20;;;;;;;;;;5023816;28;20048;-73
2021/07/21 12:13:10;;;;;;;6.07;3.75;;;;;;;;;;5025400;28;20036;-77
2021/07/21 12:15:55;;;;;;;;;;;;;;;;;;5025565;28;20099;-73
2021/07/21 12:18:40;;;;;;;4.00;3.13;;;;;;;;;;5026212;28;20062;-73
2021/07/21 12:21:27;;;;;;;6.93;3.28;;;;;;;;;;5010254;28;20577;-73
2021/07/21 12:24:14;;;;;;;5.45;3.10;;;;;;;;;;5024221;28;20048;-73
2021/07/21 12:26:58;;;;;;;5.30;3.35;;;;;;;;;;5011729;28;20032;-72
2021/07/21 12:29:43;;;;;;;6.35;3.13;;;;;;;;;;5024885;28;20043;-73
2021/07/21 12:32:27;;;;;;;3.92;3.38;;;;;;;;;;5023064;28;20087;-71
2021/07/21 12:35:13;;;;;;;4.10;3.70;;;;;;;;;;4999672;28;20084;-74
2021/07/21 12:37:58;;;;;;;6.22;3.38;;;;;;;;;;5022108;28;20045;-72
2021/07/21 12:40:43;;;;;;;5.15;3.25;;;;;;;;;;5005263;28;20501;-73
2021/07/21 12:43:27;;;;;;;5.70;3.33;;;;;;;;;;5009226;28;20036;-72
2021/07/21 12:46:15;;;;;;;4.80;3.65;;;;;;;;;;5025438;28;20048;-73
2021/07/21 12:49:00;;;;;;;5.05;3.40;;;;;;;;;;5025062;28;20038;-72
2021/07/21 12:51:44;;;;;;;3.75;3.35;;;;;;;;;;5023269;28;20557;-72
2021/07/21 12:54:29;;;;;;;6.03;3.33;;;;;;;;;;5022845;28;20052;-72
2021/07/21 12:57:14;;;;;;;3.97;3.20;;;;;;;;;;5024005;28;20045;-72
2021/07/21 13:00:05;;;;;;;4.30;3.50;;;;;;;;;;5023316;28;20132;-72
2021/07/21 13:02:50;;;;;;;;;;;;;;;;;;5011972;28;20078;-72
2021/07/21 13:05:38;;;;;;;4.13;2.92;;;;;;;;;;5023767;28;19962;-73
2021/07/21 13:08:23;;;;;;;4.82;3.50;;;;;;;;;;5024937;28;20040;-73
2021/07/21 13:11:11;;;;;;;4.47;3.22;;;;;;;;;;5024338;28;20091;-72
2021/07/21 13:13:57;;;;;;;3.80;2.97;;;;;;;;;;5022044;28;20035;-72
2021/07/21 13:16:41;;;;;;;4.90;2.88;;;;;;;;;;5022744;28;20043;-72
2021/07/21 13:19:30;;;;;;;6.65;3.60;;;;;;;;;;5023968;28;20048;-76
2021/07/21 13:22:21;;;;;;;3.85;3.08;;;;;;;;;;5025656;28;20052;-72
2021/07/21 13:25:13;;;;;;;4.40;3.60;;;;;;;;;;5022624;28;20033;-72
2021/07/21 13:27:57;;;;;;;4.00;3.22;;;;;;;;;;5023547;28;20667;-72
2021/07/21 13:30:42;;;;;;;6.97;3.33;;;;;;;;;;5013410;28;20045;-72
2021/07/21 13:33:30;;;;;;;5.38;3.30;;;;;;;;;;5024564;28;20655;-73
2021/07/21 13:36:16;;;;;;;6.00;3.50;;;;;;;;;;5012941;28;20634;-73
2021/07/21 13:39:01;;;;;;;4.90;3.42;;;;;;;;;;5023439;28;20040;-72
2021/07/21 13:41:46;;;;;;;3.45;3.05;;;;;;;;;;5007731;28;20052;-72
2021/07/21 13:44:31;;;;;;;4.50;3.20;;;;;;;;;;5020842;28;20561;-72
2021/07/21 13:47:16;;;;;;;3.90;3.20;;;;;;;;;;5008256;28;20044;-73
2021/07/21 13:50:02;;;;;;;4.53;3.33;;;;;;;;;;5021180;28;20118;-73
2021/07/21 13:53:02;;;;;;;5.07;3.20;;;;;;;;;;5020922;28;20099;-72
2021/07/21 13:55:47;;;;;;;4.20;3.30;;;;;;;;;;5022091;28;20132;-72
2021/07/21 13:58:32;;;;;;;3.45;2.92;;;;;;;;;;5022957;28;20285;-73
2021/07/21 14:01:16;;;;;;;3.92;3.20;;;;;;;;;;5021517;28;20823;-72
2021/07/21 14:04:01;;;;;;;4.53;3.30;;;;;;;;;;5022526;28;20063;-72
2021/07/21 14:06:45;;;;;;;4.25;3.40;;;;;;;;;;5008772;28;20187;-72
2021/07/21 14:09:30;;;;;;;5.13;3.42;;;;;;;;;;5022318;28;20584;-72
2021/07/21 14:12:14;;;;;;;5.57;3.20;;;;;;;;;;5018687;28;20056;-72
2021/07/21 14:14:59;;;;;;;4.10;3.25;;;;;;;;;;5022567;28;20060;-73
2021/07/21 14:17:44;;;;;;;4.63;3.40;;;;;;;;;;5022958;28;20184;-72
2021/07/21 14:20:28;;;;;;;4.07;3.35;;;;;;;;;;5003586;28;20044;-72
2021/07/21 14:23:13;;;;;;;4.35;3.25;;;;;;;;;;5020977;28;21325;-73
2021/07/21 14:25:57;;;;;;;4.20;3.30;;;;;;;;;;5022685;28;21080;-72
2021/07/21 14:28:42;;;;;;;4.45;3.25;;;;;;;;;;5023387;28;20086;-72
2021/07/21 14:31:27;;;;;;;4.65;3.47;;;;;;;;;;5025732;28;20106;-72
2021/07/21 14:34:12;;;;;;;5.18;3.22;;;;;;;;;;5027433;28;20055;-72
2021/07/21 14:36:57;;;;;;;3.53;3.20;;;;;;;;;;5026330;28;20037;-73
2021/07/21 14:39:41;;;;;;;4.40;2.92;;;;;;;;;;5026119;28;20056;-73
2021/07/21 14:42:26;;;;;;;4.53;3.30;;;;;;;;;;5028330;28;20525;-73
2021/07/21 14:45:11;;;;;;;5.65;3.28;;;;;;;;;;5025881;28;20068;-73
2021/07/21 14:47:55;;;;;;;3.63;3.22;;;;;;;;;;5027270;28;20040;-73
2021/07/21 14:50:40;;;;;;;4.60;3.33;;;;;;;;;;5026442;28;20111;-74
2021/07/21 14:53:25;;;;;;;4.40;3.35;;;;;;;;;;5010948;28;20041;-73
2021/07/21 14:56:10;;;;;;;3.65;3.25;;;;;;;;;;5026880;28;20095;-76
2021/07/21 14:58:54;;;;;;;3.97;3.20;;;;;;;;;;5011385;28;20087;-74
2021/07/21 15:01:39;;;;;;;4.03;3.45;;;;;;;;;;5024087;28;20080;-74
2021/07/21 15:04:24;;;;;;;4.03;3.30;;;;;;;;;;5025969;28;20516;-73
2021/07/21 15:07:09;;;;;;;5.60;3.20;;;;;;;;;;5026701;28;20044;-73
2021/07/21 15:09:53;;;;;;;4.75;3.53;;;;;;;;;;5025653;28;20390;-73
2021/07/21 15:12:38;;;;;;;4.00;3.20;;;;;;;;;;5023011;28;20087;-74
2021/07/21 15:15:23;;;;;;;3.92;3.00;;;;;;;;;;5027080;28;20048;-73
2021/07/21 15:18:07;;;;;;;4.80;3.50;;;;;;;;;;5025200;28;20040;-73
2021/07/21 15:20:52;;;;;;;3.92;3.50;;;;;;;;;;5007285;28;20775;-74
2021/07/21 15:23:36;;;;;;;3.58;3.28;;;;;;;;;;5012115;28;20115;-73
2021/07/21 15:26:21;;;;;;;4.43;3.08;;;;;;;;;;5026343;28;20052;-73
2021/07/21 15:29:06;;;;;;;4.30;3.00;;;;;;;;;;5024545;28;20044;-74
2021/07/21 15:31:51;;;;;;;5.05;3.70;;;;;;;;;;5025896;28;20048;-73
2021/07/21 15:34:35;;;;;;;4.20;3.00;;;;;;;;;;5024343;28;20052;-74
2021/07/21 15:37:21;;;;;;;3.67;3.10;;;;;;;;;;5024946;28;20039;-72
2021/07/21 15:40:07;;;;;;;5.03;3.70;;;;;;;;;;5004763;28;20497;-74
2021/07/21 15:42:52;;;;;;;4.63;3.20;;;;;;;;;;5016970;28;20107;-73
2021/07/21 15:45:39;;;;;;;3.60;3.20;;;;;;;;;;5019747;28;20107;-74
2021/07/21 15:48:27;;;;;;;4.25;3.30;;;;;;;;;;5016399;28;20064;-74
2021/07/21 15:51:11;;;;;;;3.83;3.13;;;;;;;;;;5025602;28;20032;-73
2021/07/21 15:53:56;;;;;;;4.20;3.70;;;;;;;;;;5023993;28;20576;-73
2021/07/21 15:56:44;;;;;;;4.60;3.40;;;;;;;;;;5025322;28;20044;-73
2021/07/21 15:59:29;;;;;;;3.72;3.28;;;;;;;;;;5006080;28;20088;-73
2021/07/21 16:02:14;;;;;;;3.90;3.30;;;;;;;;;;5021042;28;20036;-74
2021/07/21 16:04:59;;;;;;;3.78;3.25;;;;;;;;;;5026624;28;20129;-73
2021/07/21 16:07:43;;;;;;;5.45;3.53;;;;;;;;;;5037975;28;20044;-74
2021/07/21 16:10:31;;;;;;;5.43;3.25;;;;;;;;;;5016605;28;20095;-75
2021/07/21 16:13:16;;;;;;;5.07;3.40;;;;;;;;;;5024219;28;20116;-75
2021/07/21 16:16:02;;;;;;;3.72;3.33;;;;;;;;;;5011201;28;20131;-76
2021/07/21 16:18:47;;;;;;;4.45;3.38;;;;;;;;;;5024172;28;20117;-76
2021/07/21 16:21:32;;;;;;;4.88;3.67;;;;;;;;;;5016769;28;20060;-77
2021/07/21 16:24:20;;;;;;;4.30;3.50;;;;;;;;;;5010658;28;20616;-77
2021/07/21 16:27:04;;;;;;;5.82;3.72;;;;;;;;;;5025913;28;20088;-76
2021/07/21 16:29:49;;;;;;;4.10;3.70;;;;;;;;;;5024844;28;20528;-76
2021/07/21 16:32:34;;;;;;;3.92;3.17;;;;;;;;;;5024763;28;20064;-75
2021/07/21 16:35:18;;;;;;;3.97;3.28;;;;;;;;;;5024688;28;20050;-75
2021/07/21 16:38:03;;;;;;;6.78;3.47;;;;;;;;;;5024196;28;20532;-75
2021/07/21 16:40:47;;;;;;;5.68;3.88;;;;;;;;;;5010390;28;20088;-74
2021/07/21 16:43:32;;;;;;;6.78;3.95;;;;;;;;;;5009398;28;20562;-74